Terminal Aerodrome Forecast
Issued by NWS Albany, NY

Home | Current Version | Previous Version | Text Only | Print | Product List | Glossary On
Versions: 1 2 3 4 5 6 7 8 9 10 11 12 13 14 15 16 17 18 19 20 21 22 23 24 25
000
FTUS41 KALY 210532
TAFGFL
TAF
KGFL 210532Z 2106/2206 19004KT P6SM SCT120 BKN250
     FM211200 18005KT P6SM SCT050 OVC120
     FM211700 19008KT P6SM VCSH SCT025 OVC040
     FM212000 18005KT 4SM -RA BR SCT015 OVC025
     FM220200 VRB03KT 6SM -RA BR SCT025 OVC040=

USA.gov is the U.S. government's official web portal to all federal, state and local government web resources and services.